sensor_id;sensor_type;location;lat;lon;timestamp;temperature;humidity
3792;DHT22;1911;53.768;11.474;2023-02-18T00:00:05;6.90;99.90
3792;DHT22;1911;53.768;11.474;2023-02-18T00:02:32;6.80;99.90
3792;DHT22;1911;53.768;11.474;2023-02-18T00:04:58;6.80;99.90
3792;DHT22;1911;53.768;11.474;2023-02-18T00:07:24;6.80;99.90
3792;DHT22;1911;53.768;11.474;2023-02-18T00:09:49;6.80;99.90
3792;DHT22;1911;53.768;11.474;2023-02-18T00:12:15;6.80;99.90
3792;DHT22;1911;53.768;11.474;2023-02-18T00:14:40;6.70;99.90
3792;DHT22;1911;53.768;11.474;2023-02-18T00:17:06;6.70;99.90
3792;DHT22;1911;53.768;11.474;2023-02-18T00:19:32;6.70;99.90
3792;DHT22;1911;53.768;11.474;2023-02-18T00:21:57;6.70;99.90
3792;DHT22;1911;53.768;11.474;2023-02-18T00:24:23;6.70;99.90
3792;DHT22;1911;53.768;11.474;2023-02-18T00:26:50;6.70;99.90
3792;DHT22;1911;53.768;11.474;2023-02-18T00:29:17;6.60;99.90
3792;DHT22;1911;53.768;11.474;2023-02-18T00:31:43;6.60;99.90
3792;DHT22;1911;53.768;11.474;2023-02-18T00:34:10;6.50;99.90
3792;DHT22;1911;53.768;11.474;2023-02-18T00:36:36;6.60;99.90
3792;DHT22;1911;53.768;11.474;2023-02-18T00:39:06;6.50;99.90
3792;DHT22;1911;53.768;11.474;2023-02-18T00:41:33;6.50;99.90
3792;DHT22;1911;53.768;11.474;2023-02-18T00:43:58;6.50;99.90
3792;DHT22;1911;53.768;11.474;2023-02-18T00:46:25;6.50;99.90
3792;DHT22;1911;53.768;11.474;2023-02-18T00:48:51;6.40;99.90
3792;DHT22;1911;53.768;11.474;2023-02-18T00:51:16;6.40;99.90
3792;DHT22;1911;53.768;11.474;2023-02-18T00:53:42;6.40;99.90
3792;DHT22;1911;53.768;11.474;2023-02-18T00:59:30;6.30;99.90
3792;DHT22;1911;53.768;11.474;2023-02-18T01:01:56;6.30;99.90
3792;DHT22;1911;53.768;11.474;2023-02-18T01:04:21;6.30;99.90
3792;DHT22;1911;53.768;11.474;2023-02-18T01:06:47;6.40;99.90
3792;DHT22;1911;53.768;11.474;2023-02-18T01:09:12;6.30;99.90
3792;DHT22;1911;53.768;11.474;2023-02-18T01:11:38;6.30;99.90
3792;DHT22;1911;53.768;11.474;2023-02-18T01:14:04;6.30;99.90
3792;DHT22;1911;53.768;11.474;2023-02-18T01:16:29;6.30;99.90
3792;DHT22;1911;53.768;11.474;2023-02-18T01:18:55;6.20;99.90
3792;DHT22;1911;53.768;11.474;2023-02-18T01:21:20;6.20;99.90
3792;DHT22;1911;53.768;11.474;2023-02-18T01:23:46;6.20;99.90
3792;DHT22;1911;53.768;11.474;2023-02-18T01:26:12;6.20;99.90
3792;DHT22;1911;53.768;11.474;2023-02-18T01:28:39;6.20;99.90
3792;DHT22;1911;53.768;11.474;2023-02-18T01:31:11;6.20;99.90
3792;DHT22;1911;53.768;11.474;2023-02-18T01:33:37;6.20;99.90
3792;DHT22;1911;53.768;11.474;2023-02-18T01:36:03;6.20;99.90
3792;DHT22;1911;53.768;11.474;2023-02-18T01:38:29;6.10;99.90
3792;DHT22;1911;53.768;11.474;2023-02-18T01:40:55;6.10;99.90
3792;DHT22;1911;53.768;11.474;2023-02-18T01:43:21;6.10;99.90
3792;DHT22;1911;53.768;11.474;2023-02-18T01:45:58;6.10;99.90
3792;DHT22;1911;53.768;11.474;2023-02-18T01:51:22;6.10;99.90
3792;DHT22;1911;53.768;11.474;2023-02-18T01:54:02;6.10;99.90
3792;DHT22;1911;53.768;11.474;2023-02-18T01:56:40;6.10;99.90
3792;DHT22;1911;53.768;11.474;2023-02-18T01:59:10;6.10;99.90
3792;DHT22;1911;53.768;11.474;2023-02-18T02:10:16;6.00;99.90
3792;DHT22;1911;53.768;11.474;2023-02-18T02:13:09;6.00;99.90
3792;DHT22;1911;53.768;11.474;2023-02-18T02:15:52;6.00;99.90
3792;DHT22;1911;53.768;11.474;2023-02-18T02:24:41;6.00;99.90
3792;DHT22;1911;53.768;11.474;2023-02-18T02:36:25;5.80;99.90
3792;DHT22;1911;53.768;11.474;2023-02-18T02:39:02;5.80;99.90
3792;DHT22;1911;53.768;11.474;2023-02-18T02:41:46;5.80;99.90
3792;DHT22;1911;53.768;11.474;2023-02-18T02:44:38;5.80;99.90
3792;DHT22;1911;53.768;11.474;2023-02-18T02:47:12;5.80;99.90
3792;DHT22;1911;53.768;11.474;2023-02-18T02:52:27;5.80;99.90
3792;DHT22;1911;53.768;11.474;2023-02-18T02:54:54;5.80;99.90
3792;DHT22;1911;53.768;11.474;2023-02-18T02:59:52;5.80;99.90
3792;DHT22;1911;53.768;11.474;2023-02-18T03:02:43;5.70;99.90
3792;DHT22;1911;53.768;11.474;2023-02-18T03:11:05;5.70;99.90
3792;DHT22;1911;53.768;11.474;2023-02-18T03:16:06;5.60;99.90
3792;DHT22;1911;53.768;11.474;2023-02-18T03:18:45;5.60;99.90
3792;DHT22;1911;53.768;11.474;2023-02-18T03:21:26;5.70;99.90
3792;DHT22;1911;53.768;11.474;2023-02-18T03:26:32;5.60;99.90
3792;DHT22;1911;53.768;11.474;2023-02-18T03:29:02;5.50;99.90
3792;DHT22;1911;53.768;11.474;2023-02-18T03:31:29;5.50;99.90
3792;DHT22;1911;53.768;11.474;2023-02-18T03:34:02;5.50;99.90
3792;DHT22;1911;53.768;11.474;2023-02-18T03:36:31;5.50;99.90
3792;DHT22;1911;53.768;11.474;2023-02-18T03:39:19;5.40;99.90
3792;DHT22;1911;53.768;11.474;2023-02-18T03:41:46;5.40;99.90
3792;DHT22;1911;53.768;11.474;2023-02-18T03:44:12;5.40;99.90
3792;DHT22;1911;53.768;11.474;2023-02-18T03:46:39;5.40;99.90
3792;DHT22;1911;53.768;11.474;2023-02-18T03:49:08;5.40;99.90
3792;DHT22;1911;53.768;11.474;2023-02-18T03:51:33;5.40;99.90
3792;DHT22;1911;53.768;11.474;2023-02-18T03:53:59;5.40;99.90
3792;DHT22;1911;53.768;11.474;2023-02-18T03:56:25;5.40;99.90
3792;DHT22;1911;53.768;11.474;2023-02-18T03:58:50;5.40;99.90
3792;DHT22;1911;53.768;11.474;2023-02-18T04:01:16;5.30;99.90
3792;DHT22;1911;53.768;11.474;2023-02-18T04:03:41;5.30;99.90
3792;DHT22;1911;53.768;11.474;2023-02-18T04:06:07;5.40;99.90
3792;DHT22;1911;53.768;11.474;2023-02-18T04:08:33;5.40;99.90
3792;DHT22;1911;53.768;11.474;2023-02-18T04:10:59;5.40;99.90
3792;DHT22;1911;53.768;11.474;2023-02-18T04:13:26;5.40;99.90
3792;DHT22;1911;53.768;11.474;2023-02-18T04:15:51;5.40;99.90
3792;DHT22;1911;53.768;11.474;2023-02-18T04:18:17;5.40;99.90
3792;DHT22;1911;53.768;11.474;2023-02-18T04:20:43;5.40;99.90
3792;DHT22;1911;53.768;11.474;2023-02-18T04:23:09;5.50;99.90
3792;DHT22;1911;53.768;11.474;2023-02-18T04:25:34;5.50;99.90
3792;DHT22;1911;53.768;11.474;2023-02-18T04:28:00;5.40;99.90
3792;DHT22;1911;53.768;11.474;2023-02-18T04:30:25;5.50;99.90
3792;DHT22;1911;53.768;11.474;2023-02-18T04:32:51;5.50;99.90
3792;DHT22;1911;53.768;11.474;2023-02-18T04:35:17;5.50;99.90
3792;DHT22;1911;53.768;11.474;2023-02-18T04:37:42;5.50;99.90
3792;DHT22;1911;53.768;11.474;2023-02-18T04:40:08;5.50;99.90
3792;DHT22;1911;53.768;11.474;2023-02-18T04:42:35;5.50;99.90
3792;DHT22;1911;53.768;11.474;2023-02-18T04:45:00;5.60;99.90
3792;DHT22;1911;53.768;11.474;2023-02-18T04:47:26;5.60;99.90
3792;DHT22;1911;53.768;11.474;2023-02-18T04:49:52;5.60;99.90
3792;DHT22;1911;53.768;11.474;2023-02-18T04:52:17;5.60;99.90
3792;DHT22;1911;53.768;11.474;2023-02-18T04:54:43;5.70;99.90
3792;DHT22;1911;53.768;11.474;2023-02-18T04:57:10;5.70;99.90
3792;DHT22;1911;53.768;11.474;2023-02-18T04:59:35;5.70;99.90
3792;DHT22;1911;53.768;11.474;2023-02-18T05:02:01;5.70;99.90
3792;DHT22;1911;53.768;11.474;2023-02-18T05:04:27;5.70;99.90
3792;DHT22;1911;53.768;11.474;2023-02-18T05:06:52;5.70;99.90
3792;DHT22;1911;53.768;11.474;2023-02-18T05:09:18;5.70;99.90
3792;DHT22;1911;53.768;11.474;2023-02-18T05:11:44;5.70;99.90
3792;DHT22;1911;53.768;11.474;2023-02-18T05:14:10;5.70;99.90
3792;DHT22;1911;53.768;11.474;2023-02-18T05:16:36;5.70;99.90
3792;DHT22;1911;53.768;11.474;2023-02-18T05:19:01;5.70;99.90
3792;DHT22;1911;53.768;11.474;2023-02-18T05:21:27;5.70;99.90
3792;DHT22;1911;53.768;11.474;2023-02-18T05:23:52;5.70;99.90
3792;DHT22;1911;53.768;11.474;2023-02-18T05:26:18;5.70;99.90
3792;DHT22;1911;53.768;11.474;2023-02-18T05:28:43;5.70;99.90
3792;DHT22;1911;53.768;11.474;2023-02-18T05:31:09;5.80;99.90
3792;DHT22;1911;53.768;11.474;2023-02-18T05:33:34;5.80;99.90
3792;DHT22;1911;53.768;11.474;2023-02-18T05:36:00;5.80;99.90
3792;DHT22;1911;53.768;11.474;2023-02-18T05:38:26;5.80;99.90
3792;DHT22;1911;53.768;11.474;2023-02-18T05:40:51;5.80;99.90
3792;DHT22;1911;53.768;11.474;2023-02-18T05:43:17;5.70;99.90
3792;DHT22;1911;53.768;11.474;2023-02-18T05:45:42;5.70;99.90
3792;DHT22;1911;53.768;11.474;2023-02-18T05:48:08;5.70;99.90
3792;DHT22;1911;53.768;11.474;2023-02-18T05:50:34;5.70;99.90
3792;DHT22;1911;53.768;11.474;2023-02-18T05:52:59;5.70;99.90
3792;DHT22;1911;53.768;11.474;2023-02-18T05:55:25;5.70;99.90
3792;DHT22;1911;53.768;11.474;2023-02-18T05:57:51;5.70;99.90
3792;DHT22;1911;53.768;11.474;2023-02-18T06:00:17;5.70;99.90
3792;DHT22;1911;53.768;11.474;2023-02-18T06:02:43;5.80;99.90
3792;DHT22;1911;53.768;11.474;2023-02-18T06:05:09;5.70;99.90
3792;DHT22;1911;53.768;11.474;2023-02-18T06:07:35;5.80;99.90
3792;DHT22;1911;53.768;11.474;2023-02-18T06:10:01;5.80;99.90
3792;DHT22;1911;53.768;11.474;2023-02-18T06:12:27;5.80;99.90
3792;DHT22;1911;53.768;11.474;2023-02-18T06:14:53;5.80;99.90
3792;DHT22;1911;53.768;11.474;2023-02-18T06:17:19;5.80;99.90
3792;DHT22;1911;53.768;11.474;2023-02-18T06:19:47;5.90;99.90
3792;DHT22;1911;53.768;11.474;2023-02-18T06:22:13;5.90;99.90
3792;DHT22;1911;53.768;11.474;2023-02-18T06:24:39;5.80;99.90
3792;DHT22;1911;53.768;11.474;2023-02-18T06:27:04;5.90;99.90
3792;DHT22;1911;53.768;11.474;2023-02-18T06:29:30;5.80;99.90
3792;DHT22;1911;53.768;11.474;2023-02-18T06:31:59;5.80;99.90
3792;DHT22;1911;53.768;11.474;2023-02-18T06:34:26;5.80;99.90
3792;DHT22;1911;53.768;11.474;2023-02-18T06:36:52;5.80;99.90
3792;DHT22;1911;53.768;11.474;2023-02-18T06:39:18;5.80;99.90
3792;DHT22;1911;53.768;11.474;2023-02-18T06:41:43;5.80;99.90
3792;DHT22;1911;53.768;11.474;2023-02-18T06:44:09;5.80;99.90
3792;DHT22;1911;53.768;11.474;2023-02-18T06:46:36;5.80;99.90
3792;DHT22;1911;53.768;11.474;2023-02-18T06:49:02;5.70;99.90
3792;DHT22;1911;53.768;11.474;2023-02-18T06:51:28;5.70;99.90
3792;DHT22;1911;53.768;11.474;2023-02-18T06:53:53;5.70;99.90
3792;DHT22;1911;53.768;11.474;2023-02-18T06:56:19;5.70;99.90
3792;DHT22;1911;53.768;11.474;2023-02-18T06:58:44;5.70;99.90
3792;DHT22;1911;53.768;11.474;2023-02-18T07:01:10;5.70;99.90
3792;DHT22;1911;53.768;11.474;2023-02-18T07:03:35;5.70;99.90
3792;DHT22;1911;53.768;11.474;2023-02-18T07:06:01;5.70;99.90
3792;DHT22;1911;53.768;11.474;2023-02-18T07:08:27;5.70;99.90
3792;DHT22;1911;53.768;11.474;2023-02-18T07:10:55;5.70;99.90
3792;DHT22;1911;53.768;11.474;2023-02-18T07:13:21;5.70;99.90
3792;DHT22;1911;53.768;11.474;2023-02-18T07:15:46;5.70;99.90
3792;DHT22;1911;53.768;11.474;2023-02-18T07:18:12;5.70;99.90
3792;DHT22;1911;53.768;11.474;2023-02-18T07:20:37;5.80;99.90
3792;DHT22;1911;53.768;11.474;2023-02-18T07:23:03;5.80;99.90
3792;DHT22;1911;53.768;11.474;2023-02-18T07:25:28;5.80;99.90
3792;DHT22;1911;53.768;11.474;2023-02-18T07:27:54;5.80;99.90
3792;DHT22;1911;53.768;11.474;2023-02-18T07:30:20;5.90;99.90
3792;DHT22;1911;53.768;11.474;2023-02-18T07:32:45;6.00;99.90
3792;DHT22;1911;53.768;11.474;2023-02-18T07:35:15;6.00;99.90
3792;DHT22;1911;53.768;11.474;2023-02-18T07:37:45;6.00;99.90
3792;DHT22;1911;53.768;11.474;2023-02-18T07:40:16;6.00;99.90
3792;DHT22;1911;53.768;11.474;2023-02-18T07:42:42;6.00;99.90
3792;DHT22;1911;53.768;11.474;2023-02-18T07:45:08;5.90;99.90
3792;DHT22;1911;53.768;11.474;2023-02-18T07:47:34;5.90;99.90
3792;DHT22;1911;53.768;11.474;2023-02-18T07:50:00;5.90;99.90
3792;DHT22;1911;53.768;11.474;2023-02-18T07:52:26;5.90;99.90
3792;DHT22;1911;53.768;11.474;2023-02-18T07:54:52;5.90;99.90
3792;DHT22;1911;53.768;11.474;2023-02-18T07:57:18;5.90;99.90
3792;DHT22;1911;53.768;11.474;2023-02-18T07:59:44;5.80;99.90
3792;DHT22;1911;53.768;11.474;2023-02-18T08:02:17;5.80;99.90
3792;DHT22;1911;53.768;11.474;2023-02-18T08:04:43;5.90;99.90
3792;DHT22;1911;53.768;11.474;2023-02-18T08:07:12;5.90;99.90
3792;DHT22;1911;53.768;11.474;2023-02-18T08:09:38;5.80;99.90
3792;DHT22;1911;53.768;11.474;2023-02-18T08:12:04;5.80;99.90
3792;DHT22;1911;53.768;11.474;2023-02-18T08:14:29;5.80;99.90
3792;DHT22;1911;53.768;11.474;2023-02-18T08:16:55;5.80;99.90
3792;DHT22;1911;53.768;11.474;2023-02-18T08:19:21;5.80;99.90
3792;DHT22;1911;53.768;11.474;2023-02-18T08:21:46;5.80;99.90
3792;DHT22;1911;53.768;11.474;2023-02-18T08:24:12;5.80;99.90
3792;DHT22;1911;53.768;11.474;2023-02-18T08:26:37;5.80;99.90
3792;DHT22;1911;53.768;11.474;2023-02-18T08:29:03;5.80;99.90
3792;DHT22;1911;53.768;11.474;2023-02-18T08:31:31;5.80;99.90
3792;DHT22;1911;53.768;11.474;2023-02-18T08:33:57;5.90;99.90
3792;DHT22;1911;53.768;11.474;2023-02-18T08:36:23;5.90;99.90
3792;DHT22;1911;53.768;11.474;2023-02-18T08:38:49;5.90;99.90
3792;DHT22;1911;53.768;11.474;2023-02-18T08:41:15;5.80;99.90
3792;DHT22;1911;53.768;11.474;2023-02-18T08:43:43;5.80;99.90
3792;DHT22;1911;53.768;11.474;2023-02-18T08:46:09;5.80;99.90
3792;DHT22;1911;53.768;11.474;2023-02-18T08:48:35;5.80;99.90
3792;DHT22;1911;53.768;11.474;2023-02-18T08:51:17;5.70;99.90
3792;DHT22;1911;53.768;11.474;2023-02-18T08:53:43;5.70;99.90
3792;DHT22;1911;53.768;11.474;2023-02-18T08:56:10;5.70;99.90
3792;DHT22;1911;53.768;11.474;2023-02-18T08:58:37;5.70;99.90
3792;DHT22;1911;53.768;11.474;2023-02-18T09:01:08;5.70;99.90
3792;DHT22;1911;53.768;11.474;2023-02-18T09:03:34;5.70;99.90
3792;DHT22;1911;53.768;11.474;2023-02-18T09:06:00;5.80;99.90
3792;DHT22;1911;53.768;11.474;2023-02-18T09:08:27;5.80;99.90
3792;DHT22;1911;53.768;11.474;2023-02-18T09:10:57;5.70;99.90
3792;DHT22;1911;53.768;11.474;2023-02-18T09:13:23;5.70;99.90
3792;DHT22;1911;53.768;11.474;2023-02-18T09:16:16;5.70;99.90
3792;DHT22;1911;53.768;11.474;2023-02-18T09:18:45;5.60;99.90
3792;DHT22;1911;53.768;11.474;2023-02-18T09:21:13;5.60;99.90
3792;DHT22;1911;53.768;11.474;2023-02-18T09:23:40;5.60;99.90
3792;DHT22;1911;53.768;11.474;2023-02-18T09:26:10;5.60;99.90
3792;DHT22;1911;53.768;11.474;2023-02-18T09:28:37;5.60;99.90
3792;DHT22;1911;53.768;11.474;2023-02-18T09:31:12;5.50;99.90
3792;DHT22;1911;53.768;11.474;2023-02-18T09:33:42;5.50;99.90
3792;DHT22;1911;53.768;11.474;2023-02-18T09:36:08;5.60;99.90
3792;DHT22;1911;53.768;11.474;2023-02-18T09:38:34;5.60;99.90
3792;DHT22;1911;53.768;11.474;2023-02-18T09:41:02;5.50;99.90
3792;DHT22;1911;53.768;11.474;2023-02-18T09:43:41;5.40;99.90
3792;DHT22;1911;53.768;11.474;2023-02-18T09:46:20;5.50;99.90
3792;DHT22;1911;53.768;11.474;2023-02-18T09:48:48;5.60;99.90
3792;DHT22;1911;53.768;11.474;2023-02-18T09:51:14;5.60;99.90
3792;DHT22;1911;53.768;11.474;2023-02-18T09:53:42;5.60;99.90
3792;DHT22;1911;53.768;11.474;2023-02-18T09:56:14;5.60;99.90
3792;DHT22;1911;53.768;11.474;2023-02-18T09:58:43;5.60;99.90
3792;DHT22;1911;53.768;11.474;2023-02-18T10:01:15;5.60;99.90
3792;DHT22;1911;53.768;11.474;2023-02-18T10:03:43;5.60;99.90
3792;DHT22;1911;53.768;11.474;2023-02-18T10:06:19;5.60;99.90
3792;DHT22;1911;53.768;11.474;2023-02-18T10:08:49;5.60;99.90
3792;DHT22;1911;53.768;11.474;2023-02-18T10:11:27;5.50;99.90
3792;DHT22;1911;53.768;11.474;2023-02-18T10:13:54;5.50;99.90
3792;DHT22;1911;53.768;11.474;2023-02-18T10:16:21;5.60;99.90
3792;DHT22;1911;53.768;11.474;2023-02-18T10:18:49;5.60;99.90
3792;DHT22;1911;53.768;11.474;2023-02-18T10:21:21;5.60;99.90
3792;DHT22;1911;53.768;11.474;2023-02-18T10:24:09;5.60;99.90
3792;DHT22;1911;53.768;11.474;2023-02-18T10:26:40;5.50;99.90
3792;DHT22;1911;53.768;11.474;2023-02-18T10:29:14;5.60;99.90
3792;DHT22;1911;53.768;11.474;2023-02-18T10:31:44;5.60;99.90
3792;DHT22;1911;53.768;11.474;2023-02-18T10:40:34;5.30;99.90
3792;DHT22;1911;53.768;11.474;2023-02-18T10:45:56;5.30;99.90
3792;DHT22;1911;53.768;11.474;2023-02-18T10:48:37;5.20;99.90
3792;DHT22;1911;53.768;11.474;2023-02-18T10:51:20;5.30;99.90
3792;DHT22;1911;53.768;11.474;2023-02-18T10:53:48;5.40;99.90
3792;DHT22;1911;53.768;11.474;2023-02-18T11:01:40;5.70;99.90
3792;DHT22;1911;53.768;11.474;2023-02-18T11:04:33;5.80;99.90
3792;DHT22;1911;53.768;11.474;2023-02-18T11:07:30;5.70;99.90
3792;DHT22;1911;53.768;11.474;2023-02-18T11:10:37;5.70;99.90
3792;DHT22;1911;53.768;11.474;2023-02-18T11:13:06;5.70;99.90
3792;DHT22;1911;53.768;11.474;2023-02-18T11:15:33;5.60;99.90
3792;DHT22;1911;53.768;11.474;2023-02-18T11:18:34;5.60;99.90
3792;DHT22;1911;53.768;11.474;2023-02-18T11:21:17;5.60;99.90
3792;DHT22;1911;53.768;11.474;2023-02-18T11:23:57;5.60;99.90
3792;DHT22;1911;53.768;11.474;2023-02-18T11:26:39;5.60;99.90
3792;DHT22;1911;53.768;11.474;2023-02-18T11:29:20;5.60;99.90
3792;DHT22;1911;53.768;11.474;2023-02-18T11:31:48;5.60;99.90
3792;DHT22;1911;53.768;11.474;2023-02-18T11:34:26;5.50;99.90
3792;DHT22;1911;53.768;11.474;2023-02-18T11:36:53;5.60;99.90
3792;DHT22;1911;53.768;11.474;2023-02-18T11:39:22;5.60;99.90
3792;DHT22;1911;53.768;11.474;2023-02-18T11:42:03;5.60;99.90
3792;DHT22;1911;53.768;11.474;2023-02-18T11:44:58;5.60;99.90
3792;DHT22;1911;53.768;11.474;2023-02-18T11:47:35;5.70;99.90
3792;DHT22;1911;53.768;11.474;2023-02-18T11:52:42;5.60;99.90
3792;DHT22;1911;53.768;11.474;2023-02-18T11:55:21;5.70;99.90
3792;DHT22;1911;53.768;11.474;2023-02-18T12:02:50;5.80;99.90
3792;DHT22;1911;53.768;11.474;2023-02-18T12:05:22;5.80;99.90
3792;DHT22;1911;53.768;11.474;2023-02-18T12:08:12;5.80;99.90
3792;DHT22;1911;53.768;11.474;2023-02-18T12:11:01;5.80;99.90
3792;DHT22;1911;53.768;11.474;2023-02-18T12:13:34;6.00;99.90
3792;DHT22;1911;53.768;11.474;2023-02-18T12:16:12;6.20;99.90
3792;DHT22;1911;53.768;11.474;2023-02-18T12:18:52;6.10;99.90
3792;DHT22;1911;53.768;11.474;2023-02-18T12:26:38;5.90;99.90
3792;DHT22;1911;53.768;11.474;2023-02-18T12:31:47;5.80;99.90
3792;DHT22;1911;53.768;11.474;2023-02-18T12:34:41;5.80;99.90
3792;DHT22;1911;53.768;11.474;2023-02-18T12:42:41;5.70;99.90
3792;DHT22;1911;53.768;11.474;2023-02-18T12:58:56;5.20;99.90
3792;DHT22;1911;53.768;11.474;2023-02-18T13:01:42;5.20;99.90
3792;DHT22;1911;53.768;11.474;2023-02-18T13:04:34;5.10;99.90
3792;DHT22;1911;53.768;11.474;2023-02-18T13:07:20;5.00;99.90
3792;DHT22;1911;53.768;11.474;2023-02-18T13:10:31;5.00;99.90
3792;DHT22;1911;53.768;11.474;2023-02-18T13:14:29;4.90;99.90
3792;DHT22;1911;53.768;11.474;2023-02-18T13:16:23;4.80;99.90
3792;DHT22;1911;53.768;11.474;2023-02-18T13:19:17;4.70;99.90
3792;DHT22;1911;53.768;11.474;2023-02-18T13:21:50;4.60;99.90
3792;DHT22;1911;53.768;11.474;2023-02-18T13:33:28;4.20;99.90
3792;DHT22;1911;53.768;11.474;2023-02-18T13:36:14;4.10;99.90
3792;DHT22;1911;53.768;11.474;2023-02-18T13:38:59;4.20;99.90
3792;DHT22;1911;53.768;11.474;2023-02-18T14:49:39;3.60;99.90
3792;DHT22;1911;53.768;11.474;2023-02-18T14:52:18;3.60;99.90
3792;DHT22;1911;53.768;11.474;2023-02-18T14:54:45;3.60;99.90
3792;DHT22;1911;53.768;11.474;2023-02-18T14:57:19;3.60;99.90
3792;DHT22;1911;53.768;11.474;2023-02-18T14:59:48;3.60;99.90
3792;DHT22;1911;53.768;11.474;2023-02-18T15:02:23;3.60;99.90
3792;DHT22;1911;53.768;11.474;2023-02-18T15:04:53;3.70;99.90
3792;DHT22;1911;53.768;11.474;2023-02-18T15:07:20;3.70;99.90
3792;DHT22;1911;53.768;11.474;2023-02-18T15:09:51;3.70;99.90
3792;DHT22;1911;53.768;11.474;2023-02-18T15:12:20;3.70;99.90
3792;DHT22;1911;53.768;11.474;2023-02-18T15:14:49;3.70;99.90
3792;DHT22;1911;53.768;11.474;2023-02-18T15:17:22;3.60;99.90
3792;DHT22;1911;53.768;11.474;2023-02-18T15:19:52;3.60;99.90
3792;DHT22;1911;53.768;11.474;2023-02-18T15:22:21;3.50;99.90
3792;DHT22;1911;53.768;11.474;2023-02-18T15:24:48;3.60;99.90
3792;DHT22;1911;53.768;11.474;2023-02-18T15:27:20;3.70;99.90
3792;DHT22;1911;53.768;11.474;2023-02-18T15:29:52;3.70;99.90
3792;DHT22;1911;53.768;11.474;2023-02-18T15:32:27;3.70;99.90
3792;DHT22;1911;53.768;11.474;2023-02-18T15:34:58;3.80;99.90
3792;DHT22;1911;53.768;11.474;2023-02-18T15:37:30;3.70;99.90
3792;DHT22;1911;53.768;11.474;2023-02-18T15:39:56;3.80;99.90
3792;DHT22;1911;53.768;11.474;2023-02-18T15:42:42;3.80;99.90
3792;DHT22;1911;53.768;11.474;2023-02-18T15:45:42;3.80;99.90
3792;DHT22;1911;53.768;11.474;2023-02-18T15:48:51;3.70;99.90
3792;DHT22;1911;53.768;11.474;2023-02-18T16:01:38;3.80;99.90
3792;DHT22;1911;53.768;11.474;2023-02-18T16:15:15;3.70;99.90
3792;DHT22;1911;53.768;11.474;2023-02-18T16:24:29;3.70;99.90
3792;DHT22;1911;53.768;11.474;2023-02-18T16:27:51;3.70;99.90
3792;DHT22;1911;53.768;11.474;2023-02-18T16:30:48;3.70;99.90
3792;DHT22;1911;53.768;11.474;2023-02-18T16:43:52;3.70;99.90
3792;DHT22;1911;53.768;11.474;2023-02-18T16:46:41;3.70;99.90
3792;DHT22;1911;53.768;11.474;2023-02-18T16:49:11;3.70;99.90
3792;DHT22;1911;53.768;11.474;2023-02-18T16:51:37;3.70;99.90
3792;DHT22;1911;53.768;11.474;2023-02-18T16:54:03;3.70;99.90
3792;DHT22;1911;53.768;11.474;2023-02-18T16:56:31;3.70;99.90
3792;DHT22;1911;53.768;11.474;2023-02-18T16:58:57;3.70;99.90
3792;DHT22;1911;53.768;11.474;2023-02-18T17:01:27;3.70;99.90
3792;DHT22;1911;53.768;11.474;2023-02-18T17:03:54;3.60;99.90
3792;DHT22;1911;53.768;11.474;2023-02-18T17:06:21;3.50;99.90
3792;DHT22;1911;53.768;11.474;2023-02-18T17:08:47;3.50;99.90
3792;DHT22;1911;53.768;11.474;2023-02-18T17:11:28;3.40;99.90
3792;DHT22;1911;53.768;11.474;2023-02-18T17:13:55;3.40;99.90
3792;DHT22;1911;53.768;11.474;2023-02-18T17:16:24;3.40;99.90
3792;DHT22;1911;53.768;11.474;2023-02-18T17:18:50;3.30;99.90
3792;DHT22;1911;53.768;11.474;2023-02-18T17:21:18;3.30;99.90
3792;DHT22;1911;53.768;11.474;2023-02-18T17:23:45;3.30;99.90
3792;DHT22;1911;53.768;11.474;2023-02-18T17:26:22;3.20;99.90
3792;DHT22;1911;53.768;11.474;2023-02-18T17:28:53;3.20;99.90
3792;DHT22;1911;53.768;11.474;2023-02-18T17:31:23;3.20;99.90
3792;DHT22;1911;53.768;11.474;2023-02-18T17:33:51;3.20;99.90
3792;DHT22;1911;53.768;11.474;2023-02-18T17:36:18;3.20;99.90
3792;DHT22;1911;53.768;11.474;2023-02-18T17:38:45;3.10;99.90
3792;DHT22;1911;53.768;11.474;2023-02-18T17:41:12;3.10;99.90
3792;DHT22;1911;53.768;11.474;2023-02-18T17:43:38;3.10;99.90
3792;DHT22;1911;53.768;11.474;2023-02-18T17:46:04;3.10;99.90
3792;DHT22;1911;53.768;11.474;2023-02-18T17:48:30;3.10;99.90
3792;DHT22;1911;53.768;11.474;2023-02-18T17:50:56;3.10;99.90
3792;DHT22;1911;53.768;11.474;2023-02-18T17:53:22;3.00;99.90
3792;DHT22;1911;53.768;11.474;2023-02-18T17:55:49;3.10;99.90
3792;DHT22;1911;53.768;11.474;2023-02-18T17:58:15;3.10;99.90
3792;DHT22;1911;53.768;11.474;2023-02-18T18:03:10;3.00;99.90
3792;DHT22;1911;53.768;11.474;2023-02-18T18:05:38;3.00;99.90
3792;DHT22;1911;53.768;11.474;2023-02-18T18:08:05;3.00;99.90
3792;DHT22;1911;53.768;11.474;2023-02-18T18:10:35;3.00;99.90
3792;DHT22;1911;53.768;11.474;2023-02-18T18:13:11;2.90;99.90
3792;DHT22;1911;53.768;11.474;2023-02-18T18:15:41;2.90;99.90
3792;DHT22;1911;53.768;11.474;2023-02-18T18:18:10;2.90;99.90
3792;DHT22;1911;53.768;11.474;2023-02-18T18:20:38;2.90;99.90
3792;DHT22;1911;53.768;11.474;2023-02-18T18:23:10;2.90;99.90
3792;DHT22;1911;53.768;11.474;2023-02-18T18:26:18;2.90;99.90
3792;DHT22;1911;53.768;11.474;2023-02-18T18:28:44;2.90;99.90
3792;DHT22;1911;53.768;11.474;2023-02-18T18:31:14;2.90;99.90
3792;DHT22;1911;53.768;11.474;2023-02-18T18:33:46;2.90;99.90
3792;DHT22;1911;53.768;11.474;2023-02-18T18:36:16;2.90;99.90
3792;DHT22;1911;53.768;11.474;2023-02-18T18:38:44;2.90;99.90
3792;DHT22;1911;53.768;11.474;2023-02-18T18:41:17;2.90;99.90
3792;DHT22;1911;53.768;11.474;2023-02-18T18:43:43;2.90;99.90
3792;DHT22;1911;53.768;11.474;2023-02-18T18:46:13;3.00;99.90
3792;DHT22;1911;53.768;11.474;2023-02-18T18:48:51;2.90;99.90
3792;DHT22;1911;53.768;11.474;2023-02-18T18:51:27;3.00;99.90
3792;DHT22;1911;53.768;11.474;2023-02-18T18:53:53;3.00;99.90
3792;DHT22;1911;53.768;11.474;2023-02-18T18:56:19;3.00;99.90
3792;DHT22;1911;53.768;11.474;2023-02-18T18:58:44;3.00;99.90
3792;DHT22;1911;53.768;11.474;2023-02-18T19:01:15;3.00;99.90
3792;DHT22;1911;53.768;11.474;2023-02-18T19:03:41;3.00;99.90
3792;DHT22;1911;53.768;11.474;2023-02-18T19:06:11;3.00;99.90
3792;DHT22;1911;53.768;11.474;2023-02-18T19:08:38;3.10;99.90
3792;DHT22;1911;53.768;11.474;2023-02-18T19:11:04;3.10;99.90
3792;DHT22;1911;53.768;11.474;2023-02-18T19:13:31;3.10;99.90
3792;DHT22;1911;53.768;11.474;2023-02-18T19:16:30;3.10;99.90
3792;DHT22;1911;53.768;11.474;2023-02-18T19:18:57;3.10;99.90
3792;DHT22;1911;53.768;11.474;2023-02-18T19:21:23;3.00;99.90
3792;DHT22;1911;53.768;11.474;2023-02-18T19:23:48;3.10;99.90
3792;DHT22;1911;53.768;11.474;2023-02-18T19:26:14;3.00;99.90
3792;DHT22;1911;53.768;11.474;2023-02-18T19:28:41;3.00;99.90
3792;DHT22;1911;53.768;11.474;2023-02-18T19:31:08;3.00;99.90
3792;DHT22;1911;53.768;11.474;2023-02-18T19:33:34;3.00;99.90
3792;DHT22;1911;53.768;11.474;2023-02-18T19:36:03;2.90;99.90
3792;DHT22;1911;53.768;11.474;2023-02-18T19:38:29;2.90;99.90
3792;DHT22;1911;53.768;11.474;2023-02-18T19:40:54;2.90;99.90
3792;DHT22;1911;53.768;11.474;2023-02-18T19:43:21;2.90;99.90
3792;DHT22;1911;53.768;11.474;2023-02-18T19:45:46;2.90;99.90
3792;DHT22;1911;53.768;11.474;2023-02-18T19:48:13;2.90;99.90
3792;DHT22;1911;53.768;11.474;2023-02-18T19:50:41;2.90;99.90
3792;DHT22;1911;53.768;11.474;2023-02-18T19:53:07;2.90;99.90
3792;DHT22;1911;53.768;11.474;2023-02-18T19:55:33;2.80;99.90